Time;durP1;ratioP1;P1;durP2;ratioP2;P2;SDS_P1;SDS_P2;PMS_P1;PMS_P2;Temp;Humidity;BMP_temperature;BMP_pressure;BME280_temperature;BME280_humidity;BME280_pressure;Samples;Min_cycle;Max_cycle;Signal;HPM_P1;HPM_P2
2022/03/19 00:01:26;;;;;;;13.37;6.27;;;;;;;;;;5032818;28;20565;-68
2022/03/19 00:03:52;;;;;;;18.57;6.03;;;;;;;;;;5052018;28;20231;-69
2022/03/19 00:06:17;;;;;;;14.73;6.23;;;;;;;;;;5058136;28;20205;-69
2022/03/19 00:08:42;;;;;;;15.60;6.23;;;;;;;;;;5059045;28;20256;-69
2022/03/19 00:11:07;;;;;;;16.53;6.80;;;;;;;;;;5067134;28;20283;-69
2022/03/19 00:13:33;;;;;;;11.57;5.67;;;;;;;;;;5056836;28;20205;-69
2022/03/19 00:15:58;;;;;;;13.50;6.93;;;;;;;;;;5048144;28;20173;-68
2022/03/19 00:18:24;;;;;;;12.87;6.67;;;;;;;;;;5052652;28;20193;-69
2022/03/19 00:20:50;;;;;;;10.90;6.00;;;;;;;;;;5066479;28;20338;-69
2022/03/19 00:23:15;;;;;;;13.33;6.13;;;;;;;;;;5051097;28;20265;-68
2022/03/19 00:25:40;;;;;;;16.10;6.53;;;;;;;;;;5048231;28;20534;-68
2022/03/19 00:28:07;;;;;;;13.90;6.53;;;;;;;;;;5053255;28;20288;-69
2022/03/19 00:30:32;;;;;;;14.53;6.40;;;;;;;;;;5061556;28;20278;-69
2022/03/19 00:32:58;;;;;;;16.40;6.93;;;;;;;;;;5052827;28;20201;-68
2022/03/19 00:35:23;;;;;;;16.90;7.97;;;;;;;;;;5050768;28;20173;-68
2022/03/19 00:37:49;;;;;;;18.13;6.57;;;;;;;;;;5051540;28;20180;-70
2022/03/19 00:40:16;;;;;;;19.47;7.00;;;;;;;;;;5048614;28;20667;-70
2022/03/19 00:42:41;;;;;;;19.90;7.73;;;;;;;;;;5051116;28;20567;-70
2022/03/19 00:45:07;;;;;;;14.53;6.27;;;;;;;;;;5051500;28;20189;-69
2022/03/19 00:47:32;;;;;;;15.77;6.40;;;;;;;;;;5052180;28;20189;-70
2022/03/19 00:49:57;;;;;;;14.70;6.50;;;;;;;;;;5051088;28;20205;-69
2022/03/19 00:52:23;;;;;;;13.17;5.93;;;;;;;;;;5051319;28;20205;-70
2022/03/19 00:54:48;;;;;;;12.37;6.07;;;;;;;;;;5050530;28;20177;-67
2022/03/19 00:57:13;;;;;;;10.67;6.20;;;;;;;;;;5050441;28;20575;-70
2022/03/19 00:59:39;;;;;;;15.27;7.73;;;;;;;;;;5033682;28;20174;-69
2022/03/19 01:02:04;;;;;;;13.33;6.03;;;;;;;;;;5034244;28;20497;-68
2022/03/19 01:04:30;;;;;;;9.37;5.70;;;;;;;;;;5047468;28;20186;-68
2022/03/19 01:06:55;;;;;;;18.07;8.53;;;;;;;;;;5051751;28;20181;-69
2022/03/19 01:09:20;;;;;;;18.60;6.03;;;;;;;;;;5051836;28;20674;-69
2022/03/19 01:11:45;;;;;;;18.73;7.33;;;;;;;;;;5053506;28;20194;-68
2022/03/19 01:14:11;;;;;;;15.27;6.40;;;;;;;;;;5054938;28;20201;-68
2022/03/19 01:16:36;;;;;;;18.97;7.17;;;;;;;;;;5032451;28;20254;-68
2022/03/19 01:19:01;;;;;;;14.63;5.50;;;;;;;;;;5049686;28;20652;-69
2022/03/19 01:21:27;;;;;;;9.47;5.17;;;;;;;;;;5051070;28;20221;-68
2022/03/19 01:23:52;;;;;;;13.87;5.57;;;;;;;;;;5050484;28;20185;-69
2022/03/19 01:26:17;;;;;;;15.83;6.00;;;;;;;;;;5051217;28;20227;-69
2022/03/19 01:28:43;;;;;;;10.77;5.17;;;;;;;;;;5049531;28;20186;-69
2022/03/19 01:31:11;;;;;;;15.30;5.50;;;;;;;;;;5050574;28;20270;-69
2022/03/19 01:33:36;;;;;;;21.27;5.60;;;;;;;;;;5031955;28;20691;-68
2022/03/19 01:36:01;;;;;;;13.90;5.43;;;;;;;;;;5051485;28;20188;-69
2022/03/19 01:38:26;;;;;;;13.20;5.97;;;;;;;;;;5049834;28;20585;-69
2022/03/19 01:40:52;;;;;;;16.60;6.70;;;;;;;;;;5051423;28;20259;-70
2022/03/19 01:43:17;;;;;;;11.87;5.70;;;;;;;;;;5050811;28;20642;-69
2022/03/19 01:45:42;;;;;;;13.63;7.87;;;;;;;;;;5050963;28;20256;-68
2022/03/19 01:48:07;;;;;;;16.43;5.73;;;;;;;;;;5049155;28;20276;-68
2022/03/19 01:50:32;;;;;;;13.47;5.73;;;;;;;;;;5050913;28;20682;-69
2022/03/19 01:52:58;;;;;;;10.60;5.03;;;;;;;;;;5050664;28;20675;-68
2022/03/19 01:55:24;;;;;;;12.10;4.87;;;;;;;;;;5051948;28;20182;-68
2022/03/19 01:57:50;;;;;;;20.30;5.73;;;;;;;;;;5050533;28;20272;-70
2022/03/19 02:00:17;;;;;;;10.20;5.40;;;;;;;;;;5048988;28;20800;-68
2022/03/19 02:02:43;;;;;;;14.67;5.83;;;;;;;;;;5050510;28;20589;-69
2022/03/19 02:05:14;;;;;;;13.73;6.20;;;;;;;;;;5049230;28;20189;-68
2022/03/19 02:07:39;;;;;;;13.73;5.63;;;;;;;;;;5036274;28;20181;-68
2022/03/19 02:10:05;;;;;;;14.13;6.00;;;;;;;;;;5050797;28;20541;-69
2022/03/19 02:12:30;;;;;;;18.93;6.40;;;;;;;;;;5047705;28;20237;-68
2022/03/19 02:14:57;;;;;;;16.00;5.33;;;;;;;;;;5031933;28;20181;-68
2022/03/19 02:17:24;;;;;;;16.13;5.90;;;;;;;;;;5047428;28;20185;-70
2022/03/19 02:19:50;;;;;;;14.00;6.53;;;;;;;;;;5048737;28;20705;-70
2022/03/19 02:22:16;;;;;;;15.17;5.70;;;;;;;;;;5051948;28;20174;-68
2022/03/19 02:27:25;;;;;;;15.10;5.83;;;;;;;;;;5048549;28;20181;-68
2022/03/19 02:29:51;;;;;;;15.43;6.23;;;;;;;;;;5048255;28;20185;-68
2022/03/19 02:32:17;;;;;;;15.57;5.97;;;;;;;;;;5049409;28;20177;-68
2022/03/19 02:34:42;;;;;;;13.97;6.00;;;;;;;;;;5049541;28;20178;-68
2022/03/19 02:37:07;;;;;;;13.67;6.10;;;;;;;;;;5049145;28;20178;-68
2022/03/19 02:39:33;;;;;;;13.33;5.50;;;;;;;;;;5050416;28;20611;-68
2022/03/19 02:42:00;;;;;;;10.70;5.43;;;;;;;;;;5050208;28;20209;-68
2022/03/19 02:44:25;;;;;;;12.77;5.57;;;;;;;;;;5046940;28;20177;-68
2022/03/19 02:46:52;;;;;;;15.23;5.70;;;;;;;;;;5048741;28;20182;-68
2022/03/19 02:49:17;;;;;;;15.23;5.67;;;;;;;;;;5031412;28;20261;-68
2022/03/19 02:51:44;;;;;;;19.07;7.30;;;;;;;;;;5048102;28;20296;-68
2022/03/19 02:54:10;;;;;;;14.67;5.70;;;;;;;;;;5049089;28;20209;-68
2022/03/19 02:56:36;;;;;;;19.77;5.97;;;;;;;;;;5050308;28;20663;-68
2022/03/19 02:59:09;;;;;;;13.80;6.23;;;;;;;;;;5054495;28;20260;-68
2022/03/19 03:01:34;;;;;;;22.70;6.37;;;;;;;;;;5050220;28;20193;-70
2022/03/19 03:04:00;;;;;;;13.13;6.00;;;;;;;;;;5049707;28;20223;-68
2022/03/19 03:06:25;;;;;;;14.97;6.40;;;;;;;;;;5048311;28;20260;-68
2022/03/19 03:08:50;;;;;;;11.43;5.30;;;;;;;;;;5049334;28;20192;-68
2022/03/19 03:11:15;;;;;;;14.90;5.23;;;;;;;;;;5048849;28;20213;-68
2022/03/19 03:13:41;;;;;;;18.83;6.63;;;;;;;;;;5048609;28;20251;-70
2022/03/19 03:16:06;;;;;;;14.77;6.77;;;;;;;;;;5047520;28;20190;-68
2022/03/19 03:18:31;;;;;;;21.47;7.37;;;;;;;;;;5046625;28;20193;-68
2022/03/19 03:20:58;;;;;;;13.83;6.47;;;;;;;;;;5050775;28;20193;-68
2022/03/19 03:23:23;;;;;;;13.67;5.80;;;;;;;;;;5033129;28;20666;-68
2022/03/19 03:25:48;;;;;;;15.80;5.80;;;;;;;;;;5048169;28;20198;-68
2022/03/19 03:28:13;;;;;;;20.90;6.60;;;;;;;;;;5050098;28;20248;-68
2022/03/19 03:30:38;;;;;;;11.53;7.03;;;;;;;;;;5047699;28;20209;-68
2022/03/19 03:33:03;;;;;;;14.47;6.20;;;;;;;;;;5049027;28;20200;-68
2022/03/19 03:35:28;;;;;;;15.60;6.33;;;;;;;;;;5046888;28;20185;-68
2022/03/19 03:37:54;;;;;;;15.87;6.40;;;;;;;;;;5048345;28;20178;-68
2022/03/19 03:40:19;;;;;;;17.13;6.90;;;;;;;;;;5047589;28;20201;-70
2022/03/19 03:42:44;;;;;;;20.27;7.20;;;;;;;;;;5030328;28;20554;-68
2022/03/19 03:45:10;;;;;;;18.03;7.00;;;;;;;;;;5048111;28;20181;-68
2022/03/19 03:47:35;;;;;;;13.83;6.33;;;;;;;;;;5050419;28;20169;-69
2022/03/19 03:50:00;;;;;;;19.27;6.50;;;;;;;;;;5044814;28;20698;-69
2022/03/19 03:52:26;;;;;;;16.60;6.43;;;;;;;;;;5048627;28;20213;-68
2022/03/19 03:54:52;;;;;;;16.00;6.00;;;;;;;;;;5048252;28;20178;-69
2022/03/19 03:57:17;;;;;;;18.23;6.93;;;;;;;;;;5046228;28;20263;-68
2022/03/19 03:59:43;;;;;;;15.73;6.47;;;;;;;;;;5049230;28;20177;-69
2022/03/19 04:02:08;;;;;;;19.00;8.60;;;;;;;;;;5049239;28;20651;-69
2022/03/19 04:04:33;;;;;;;18.90;6.57;;;;;;;;;;5028811;28;20268;-69
2022/03/19 04:06:58;;;;;;;15.07;7.00;;;;;;;;;;5049338;28;20554;-69
2022/03/19 04:09:24;;;;;;;18.40;7.97;;;;;;;;;;5048960;28;20554;-69
2022/03/19 04:11:49;;;;;;;10.50;6.17;;;;;;;;;;5048411;28;20197;-69
2022/03/19 04:14:14;;;;;;;13.27;5.83;;;;;;;;;;5046102;28;20211;-69
2022/03/19 04:16:39;;;;;;;15.67;6.10;;;;;;;;;;5048236;28;20174;-69
2022/03/19 04:19:05;;;;;;;17.40;6.23;;;;;;;;;;5049208;28;20550;-67
2022/03/19 04:21:30;;;;;;;12.97;7.30;;;;;;;;;;5050067;28;20563;-68
2022/03/19 04:23:55;;;;;;;10.63;6.27;;;;;;;;;;5048258;28;20186;-68
2022/03/19 04:26:20;;;;;;;11.93;6.13;;;;;;;;;;5045474;28;20261;-70
2022/03/19 04:28:45;;;;;;;12.60;6.03;;;;;;;;;;5047735;28;20188;-68
2022/03/19 04:31:10;;;;;;;22.97;6.87;;;;;;;;;;5048688;28;20201;-70
2022/03/19 04:33:36;;;;;;;19.67;8.27;;;;;;;;;;5048716;28;20566;-68
2022/03/19 04:38:45;;;;;;;14.20;6.77;;;;;;;;;;5047691;28;20223;-70
2022/03/19 04:41:11;;;;;;;16.97;7.13;;;;;;;;;;5052412;28;20625;-71
2022/03/19 04:43:36;;;;;;;11.60;6.23;;;;;;;;;;5052229;28;20688;-71
2022/03/19 04:46:02;;;;;;;16.90;7.60;;;;;;;;;;5052071;28;20276;-70
2022/03/19 04:48:27;;;;;;;18.73;7.47;;;;;;;;;;5033904;28;20205;-71
2022/03/19 04:50:53;;;;;;;17.07;6.97;;;;;;;;;;5052028;28;20240;-71
2022/03/19 04:53:18;;;;;;;14.40;7.10;;;;;;;;;;5049681;28;20597;-71
2022/03/19 04:55:43;;;;;;;17.97;7.47;;;;;;;;;;5053835;28;20259;-70
2022/03/19 04:58:09;;;;;;;20.20;7.83;;;;;;;;;;5052172;28;20182;-70
2022/03/19 05:00:34;;;;;;;17.13;7.10;;;;;;;;;;5052451;28;20615;-68
2022/03/19 05:02:59;;;;;;;14.90;6.90;;;;;;;;;;5050559;28;20235;-68
2022/03/19 05:05:25;;;;;;;15.67;7.50;;;;;;;;;;5052207;28;20182;-68
2022/03/19 05:07:53;;;;;;;16.03;6.70;;;;;;;;;;5050431;28;20259;-68
2022/03/19 05:13:03;;;;;;;17.23;7.87;;;;;;;;;;5051044;28;20211;-68
2022/03/19 05:15:28;;;;;;;18.77;7.83;;;;;;;;;;5048567;28;20177;-70
2022/03/19 05:17:53;;;;;;;16.37;7.70;;;;;;;;;;5052097;28;20253;-69
2022/03/19 05:20:18;;;;;;;20.30;7.67;;;;;;;;;;5051022;28;20185;-68
2022/03/19 05:22:43;;;;;;;20.30;7.50;;;;;;;;;;5050702;28;20247;-68
2022/03/19 05:25:09;;;;;;;13.67;7.37;;;;;;;;;;5052373;28;20262;-68
2022/03/19 05:27:34;;;;;;;19.47;8.20;;;;;;;;;;5035794;28;20193;-70
2022/03/19 05:29:59;;;;;;;16.50;7.33;;;;;;;;;;5049265;28;20247;-68
2022/03/19 05:32:25;;;;;;;18.57;7.37;;;;;;;;;;5051497;28;20199;-70
2022/03/19 05:34:50;;;;;;;17.03;7.53;;;;;;;;;;5050859;28;20261;-67
2022/03/19 05:37:16;;;;;;;16.97;8.17;;;;;;;;;;5033646;28;20646;-67
2022/03/19 05:39:42;;;;;;;29.50;10.17;;;;;;;;;;5050810;28;20613;-69
2022/03/19 05:42:07;;;;;;;18.47;7.90;;;;;;;;;;5050953;28;20177;-68
2022/03/19 05:44:32;;;;;;;21.73;8.40;;;;;;;;;;5050049;28;20208;-68
2022/03/19 05:46:58;;;;;;;20.13;8.13;;;;;;;;;;5049414;28;20197;-68
2022/03/19 05:49:27;;;;;;;30.00;9.50;;;;;;;;;;5048128;28;20677;-68
2022/03/19 05:51:53;;;;;;;20.67;8.67;;;;;;;;;;5048700;28;20772;-68
2022/03/19 05:54:19;;;;;;;17.50;8.33;;;;;;;;;;5046306;28;20204;-68
2022/03/19 05:56:44;;;;;;;18.80;8.10;;;;;;;;;;5051660;28;20586;-68
2022/03/19 05:59:10;;;;;;;16.40;9.63;;;;;;;;;;5050216;28;20169;-68
2022/03/19 06:01:35;;;;;;;19.33;8.97;;;;;;;;;;5049438;28;20225;-71
2022/03/19 06:04:00;;;;;;;24.33;8.87;;;;;;;;;;5048018;28;20250;-68
2022/03/19 06:06:27;;;;;;;16.53;7.20;;;;;;;;;;5051099;28;20660;-68
2022/03/19 06:08:52;;;;;;;21.43;9.37;;;;;;;;;;5050141;28;20177;-68
2022/03/19 06:11:17;;;;;;;18.40;9.50;;;;;;;;;;5050666;28;20224;-70
2022/03/19 06:13:43;;;;;;;18.23;9.87;;;;;;;;;;5049227;28;20186;-68
2022/03/19 06:16:08;;;;;;;18.60;8.80;;;;;;;;;;5049187;28;20228;-68
2022/03/19 06:18:33;;;;;;;17.57;8.67;;;;;;;;;;5049047;28;20181;-69
2022/03/19 06:20:59;;;;;;;19.77;8.57;;;;;;;;;;5050919;28;20583;-69
2022/03/19 06:23:24;;;;;;;16.23;9.63;;;;;;;;;;5049916;28;20181;-69
2022/03/19 06:25:50;;;;;;;17.73;8.20;;;;;;;;;;5048813;28;20174;-69
2022/03/19 06:28:16;;;;;;;26.10;10.10;;;;;;;;;;5049341;28;20256;-68
2022/03/19 06:30:41;;;;;;;14.23;8.03;;;;;;;;;;5048976;28;20313;-68
2022/03/19 06:33:06;;;;;;;16.03;8.03;;;;;;;;;;5048183;28;20308;-69
2022/03/19 06:38:16;;;;;;;18.17;8.13;;;;;;;;;;5048465;28;20569;-69
2022/03/19 06:40:41;;;;;;;22.73;8.53;;;;;;;;;;5049482;28;20270;-68
2022/03/19 06:43:06;;;;;;;13.00;8.47;;;;;;;;;;5050033;28;20184;-69
2022/03/19 06:45:32;;;;;;;22.17;9.47;;;;;;;;;;5049852;28;20631;-69
2022/03/19 06:47:57;;;;;;;16.30;8.03;;;;;;;;;;5049316;28;20178;-69
2022/03/19 06:50:22;;;;;;;14.93;7.63;;;;;;;;;;5048943;28;20259;-69
2022/03/19 06:52:47;;;;;;;17.83;7.50;;;;;;;;;;5046277;28;20248;-69
2022/03/19 06:55:13;;;;;;;14.00;7.03;;;;;;;;;;5049723;28;20616;-69
2022/03/19 06:57:38;;;;;;;18.33;7.77;;;;;;;;;;5050346;28;20173;-69
2022/03/19 07:00:03;;;;;;;15.60;8.07;;;;;;;;;;5049690;28;20200;-69
2022/03/19 07:02:29;;;;;;;13.13;6.73;;;;;;;;;;5050104;28;20174;-69
2022/03/19 07:04:54;;;;;;;12.23;7.10;;;;;;;;;;5048482;28;20181;-68
2022/03/19 07:07:19;;;;;;;14.27;7.17;;;;;;;;;;5050205;28;20190;-68
2022/03/19 07:09:44;;;;;;;12.23;7.07;;;;;;;;;;5030952;28;20678;-69
2022/03/19 07:12:11;;;;;;;15.73;7.73;;;;;;;;;;5049685;28;20172;-69
2022/03/19 07:14:37;;;;;;;15.63;7.53;;;;;;;;;;5048119;28;20178;-69
2022/03/19 07:17:03;;;;;;;19.97;6.83;;;;;;;;;;5046194;28;20555;-69
2022/03/19 07:19:28;;;;;;;11.90;6.40;;;;;;;;;;5049514;28;20195;-69
2022/03/19 07:21:53;;;;;;;17.13;6.73;;;;;;;;;;5049868;28;20193;-69
2022/03/19 07:24:18;;;;;;;16.33;7.23;;;;;;;;;;5030970;28;20196;-68
2022/03/19 07:26:43;;;;;;;11.97;6.47;;;;;;;;;;5046047;28;20181;-68
2022/03/19 07:29:08;;;;;;;15.00;5.60;;;;;;;;;;5046372;28;20259;-69
2022/03/19 07:31:33;;;;;;;11.15;5.80;;;;;;;;;;5049109;28;20213;-69
2022/03/19 07:33:59;;;;;;;9.57;5.50;;;;;;;;;;5048643;28;20241;-69
2022/03/19 07:36:25;;;;;;;9.33;5.43;;;;;;;;;;5031376;28;20178;-68
2022/03/19 07:38:50;;;;;;;12.10;5.40;;;;;;;;;;5049633;28;20562;-69
2022/03/19 07:44:00;;;;;;;15.40;5.50;;;;;;;;;;5042512;28;20192;-69
2022/03/19 07:46:27;;;;;;;11.90;5.23;;;;;;;;;;5031811;28;20192;-69
2022/03/19 07:48:52;;;;;;;12.83;5.90;;;;;;;;;;5048764;28;20312;-69
2022/03/19 07:51:18;;;;;;;15.20;5.20;;;;;;;;;;5047398;28;20293;-69
2022/03/19 07:53:45;;;;;;;9.83;5.00;;;;;;;;;;5049158;28;20205;-69
2022/03/19 07:56:10;;;;;;;10.60;5.13;;;;;;;;;;5047973;28;20182;-69
2022/03/19 07:58:35;;;;;;;11.40;5.33;;;;;;;;;;5042738;28;20189;-69
2022/03/19 08:01:00;;;;;;;9.80;5.50;;;;;;;;;;5049966;28;20206;-70
2022/03/19 08:03:26;;;;;;;10.67;4.97;;;;;;;;;;5049863;28;20260;-69
2022/03/19 08:05:51;;;;;;;11.73;5.23;;;;;;;;;;5048478;28;20189;-69
2022/03/19 08:08:16;;;;;;;13.47;5.80;;;;;;;;;;5049498;28;20260;-69
2022/03/19 08:10:41;;;;;;;12.63;4.80;;;;;;;;;;5054345;28;20204;-70
2022/03/19 08:13:07;;;;;;;9.73;5.30;;;;;;;;;;5061296;28;20202;-70
2022/03/19 08:15:33;;;;;;;11.37;5.13;;;;;;;;;;5049977;28;20588;-69
2022/03/19 08:18:01;;;;;;;11.20;5.60;;;;;;;;;;5046781;28;20170;-69
2022/03/19 08:20:27;;;;;;;11.97;4.83;;;;;;;;;;5067557;28;20238;-69
2022/03/19 08:22:52;;;;;;;6.87;4.30;;;;;;;;;;5051912;28;20181;-70
2022/03/19 08:25:17;;;;;;;9.87;4.50;;;;;;;;;;5053959;28;20239;-69
2022/03/19 08:27:42;;;;;;;11.83;4.80;;;;;;;;;;5051007;28;20173;-67
2022/03/19 08:30:08;;;;;;;9.03;4.57;;;;;;;;;;5059900;28;20209;-70
2022/03/19 08:32:34;;;;;;;7.50;4.10;;;;;;;;;;5051993;28;20198;-68
2022/03/19 08:34:59;;;;;;;11.50;4.30;;;;;;;;;;5061426;28;20173;-69
2022/03/19 08:37:26;;;;;;;10.30;3.87;;;;;;;;;;5057266;28;20189;-71
2022/03/19 08:42:36;;;;;;;7.30;4.53;;;;;;;;;;5052778;28;20180;-69
2022/03/19 08:45:01;;;;;;;6.60;3.83;;;;;;;;;;5028401;28;20173;-69
2022/03/19 08:47:26;;;;;;;8.43;3.50;;;;;;;;;;5050303;28;20185;-66
2022/03/19 08:49:51;;;;;;;10.83;4.27;;;;;;;;;;5052166;28;20296;-69
2022/03/19 08:52:16;;;;;;;9.53;4.77;;;;;;;;;;5051552;28;20186;-69
2022/03/19 08:54:42;;;;;;;7.60;3.87;;;;;;;;;;5049609;28;20253;-68
2022/03/19 08:57:07;;;;;;;11.57;4.57;;;;;;;;;;5053663;28;20589;-69
2022/03/19 08:59:32;;;;;;;6.00;3.50;;;;;;;;;;5053276;28;20639;-68
2022/03/19 09:01:59;;;;;;;10.40;4.03;;;;;;;;;;5053162;28;20226;-68
2022/03/19 09:04:24;;;;;;;7.67;3.90;;;;;;;;;;5054062;28;20224;-68
2022/03/19 09:06:49;;;;;;;6.63;3.50;;;;;;;;;;5053211;28;20169;-68
2022/03/19 09:09:17;;;;;;;11.40;3.50;;;;;;;;;;5054500;28;20232;-69
2022/03/19 09:11:42;;;;;;;6.68;3.30;;;;;;;;;;5031825;28;20679;-69
2022/03/19 09:14:08;;;;;;;12.57;3.60;;;;;;;;;;5048695;28;20189;-69
2022/03/19 09:16:34;;;;;;;7.78;3.50;;;;;;;;;;5051380;28;20193;-69
2022/03/19 09:18:59;;;;;;;8.30;3.63;;;;;;;;;;5048465;28;20178;-67
2022/03/19 09:21:25;;;;;;;12.10;4.00;;;;;;;;;;5052560;28;20691;-67
2022/03/19 09:23:51;;;;;;;7.60;3.70;;;;;;;;;;5032060;28;20185;-67
2022/03/19 09:26:16;;;;;;;9.23;3.45;;;;;;;;;;5048356;28;20179;-70
2022/03/19 09:28:41;;;;;;;8.35;2.97;;;;;;;;;;5049802;28;20193;-67
2022/03/19 09:31:07;;;;;;;4.53;2.85;;;;;;;;;;5053269;28;20221;-73
2022/03/19 09:33:32;;;;;;;7.85;2.90;;;;;;;;;;5052555;28;20221;-76
2022/03/19 09:36:00;;;;;;;7.50;3.33;;;;;;;;;;5054573;28;20261;-74
2022/03/19 09:38:26;;;;;;;9.40;3.22;;;;;;;;;;5053070;28;20182;-71
2022/03/19 09:40:51;;;;;;;8.07;3.28;;;;;;;;;;5053775;28;20250;-69
2022/03/19 09:43:16;;;;;;;5.35;2.95;;;;;;;;;;5053227;28;20621;-69
2022/03/19 09:45:42;;;;;;;5.97;2.40;;;;;;;;;;5052986;28;20206;-66
2022/03/19 09:48:07;;;;;;;12.13;3.38;;;;;;;;;;5060472;28;20241;-69
2022/03/19 09:50:34;;;;;;;7.65;3.65;;;;;;;;;;5040608;28;20189;-66
2022/03/19 09:53:01;;;;;;;8.15;2.78;;;;;;;;;;5051316;28;20267;-69
2022/03/19 09:55:29;;;;;;;4.88;2.95;;;;;;;;;;5059609;28;20257;-69
2022/03/19 09:57:54;;;;;;;9.23;4.05;;;;;;;;;;5062495;28;20234;-69
2022/03/19 10:00:22;;;;;;;4.00;2.42;;;;;;;;;;5064605;28;20197;-69
2022/03/19 10:02:51;;;;;;;3.28;2.33;;;;;;;;;;5052569;28;20261;-66
2022/03/19 10:10:46;;;;;;;6.70;2.70;;;;;;;;;;5056554;28;20207;-68
2022/03/19 10:13:11;;;;;;;9.03;2.47;;;;;;;;;;5064259;28;20185;-67
2022/03/19 10:15:43;;;;;;;6.63;2.42;;;;;;;;;;5055337;28;20993;-67
2022/03/19 10:18:09;;;;;;;8.85;2.25;;;;;;;;;;5040199;28;20205;-67
2022/03/19 10:20:37;;;;;;;4.82;2.28;;;;;;;;;;5050678;28;20373;-68
2022/03/19 10:23:02;;;;;;;4.53;2.05;;;;;;;;;;5057199;28;20290;-67
2022/03/19 10:25:28;;;;;;;4.28;1.75;;;;;;;;;;5057094;28;20174;-67
2022/03/19 10:27:59;;;;;;;6.43;1.98;;;;;;;;;;5050309;28;20228;-68
2022/03/19 10:30:27;;;;;;;5.65;1.40;;;;;;;;;;5064664;28;20209;-67
2022/03/19 10:32:53;;;;;;;4.90;1.55;;;;;;;;;;5050509;28;20193;-67
2022/03/19 10:35:26;;;;;;;3.55;1.65;;;;;;;;;;5060240;28;20194;-67
2022/03/19 10:37:51;;;;;;;3.60;1.73;;;;;;;;;;5050403;28;20177;-67
2022/03/19 10:40:17;;;;;;;3.38;1.38;;;;;;;;;;5058430;28;20690;-69
2022/03/19 10:42:42;;;;;;;3.35;1.40;;;;;;;;;;5033657;28;20178;-68
2022/03/19 10:45:08;;;;;;;3.72;1.63;;;;;;;;;;5033140;28;20196;-67
2022/03/19 10:47:43;;;;;;;4.05;1.65;;;;;;;;;;5051343;28;20662;-68
2022/03/19 10:50:20;;;;;;;3.88;1.85;;;;;;;;;;5054901;28;20201;-67
2022/03/19 10:52:46;;;;;;;1.75;1.10;;;;;;;;;;5039461;28;20233;-68
2022/03/19 10:55:11;;;;;;;2.78;1.75;;;;;;;;;;5054934;28;20208;-67
2022/03/19 10:57:36;;;;;;;3.30;1.38;;;;;;;;;;5058941;28;20655;-68
2022/03/19 11:00:03;;;;;;;3.72;1.85;;;;;;;;;;5050276;28;20247;-67
2022/03/19 11:02:29;;;;;;;3.90;1.65;;;;;;;;;;5060176;28;20650;-68
2022/03/19 11:04:57;;;;;;;2.72;1.50;;;;;;;;;;5061418;28;20181;-67
2022/03/19 11:07:23;;;;;;;2.97;1.58;;;;;;;;;;5051187;28;20173;-67
2022/03/19 11:09:51;;;;;;;3.60;1.45;;;;;;;;;;5046547;28;20174;-68
2022/03/19 11:12:19;;;;;;;7.30;1.60;;;;;;;;;;5064676;28;20638;-67
2022/03/19 11:14:45;;;;;;;4.53;1.88;;;;;;;;;;5057467;28;20564;-68
2022/03/19 11:17:23;;;;;;;5.22;1.77;;;;;;;;;;5055201;28;20184;-68
2022/03/19 11:19:49;;;;;;;6.40;1.55;;;;;;;;;;5057984;28;20177;-67
2022/03/19 11:22:15;;;;;;;3.78;1.80;;;;;;;;;;5056429;28;20185;-67
2022/03/19 11:24:51;;;;;;;3.15;1.20;;;;;;;;;;5050771;28;20176;-67
2022/03/19 11:27:17;;;;;;;3.40;1.10;;;;;;;;;;5048912;28;20581;-67
2022/03/19 11:29:42;;;;;;;5.50;1.70;;;;;;;;;;5060183;28;20191;-68
2022/03/19 11:32:07;;;;;;;4.20;1.42;;;;;;;;;;5051746;28;20193;-69
2022/03/19 11:34:43;;;;;;;3.95;1.17;;;;;;;;;;5056805;28;20278;-68
2022/03/19 11:37:09;;;;;;;3.47;1.20;;;;;;;;;;5051175;28;20184;-67
2022/03/19 11:39:34;;;;;;;3.55;1.20;;;;;;;;;;5055767;28;20165;-67
2022/03/19 11:41:59;;;;;;;26.57;2.47;;;;;;;;;;5052802;28;20640;-67
2022/03/19 11:44:25;;;;;;;2.63;1.00;;;;;;;;;;5050583;28;20435;-67
2022/03/19 11:46:58;;;;;;;2.63;1.10;;;;;;;;;;5050433;28;20239;-68
2022/03/19 11:49:42;;;;;;;3.80;1.33;;;;;;;;;;5065947;28;20177;-68
2022/03/19 11:52:07;;;;;;;5.95;1.40;;;;;;;;;;5050710;28;20183;-67
2022/03/19 11:54:51;;;;;;;2.53;1.00;;;;;;;;;;5057329;28;20275;-67
2022/03/19 11:57:17;;;;;;;3.90;1.42;;;;;;;;;;5055159;28;20173;-68
2022/03/19 11:59:45;;;;;;;3.38;1.23;;;;;;;;;;5067057;28;20257;-67
2022/03/19 12:02:12;;;;;;;2.80;1.50;;;;;;;;;;5054387;28;20176;-68
2022/03/19 12:04:45;;;;;;;2.72;1.00;;;;;;;;;;5054107;28;20231;-68
2022/03/19 12:07:10;;;;;;;3.58;1.30;;;;;;;;;;5052223;28;20186;-67
2022/03/19 12:09:38;;;;;;;3.53;1.60;;;;;;;;;;5060355;28;20215;-67
2022/03/19 12:12:07;;;;;;;3.08;1.40;;;;;;;;;;5061641;28;20609;-68
2022/03/19 12:14:32;;;;;;;4.20;1.60;;;;;;;;;;5061174;28;20566;-68
2022/03/19 12:17:13;;;;;;;2.63;1.20;;;;;;;;;;5053607;28;20185;-68
2022/03/19 12:20:11;;;;;;;2.88;1.17;;;;;;;;;;5062578;28;20260;-67
2022/03/19 12:22:36;;;;;;;2.67;1.15;;;;;;;;;;5013787;28;20316;-68
2022/03/19 12:25:16;;;;;;;2.97;1.10;;;;;;;;;;5053970;28;20603;-68
2022/03/19 12:27:42;;;;;;;3.38;1.60;;;;;;;;;;5035385;28;20946;-67
2022/03/19 12:30:08;;;;;;;3.92;1.50;;;;;;;;;;5064053;28;20204;-68
2022/03/19 12:32:49;;;;;;;4.07;1.75;;;;;;;;;;5049486;28;20738;-68
2022/03/19 12:35:15;;;;;;;6.82;1.85;;;;;;;;;;5039577;28;20598;-69
2022/03/19 12:38:06;;;;;;;6.13;2.00;;;;;;;;;;5056206;28;20255;-67
2022/03/19 12:43:16;;;;;;;3.17;1.85;;;;;;;;;;5054251;28;20184;-67
2022/03/19 12:45:43;;;;;;;3.20;1.83;;;;;;;;;;5054311;28;20603;-67
2022/03/19 12:48:10;;;;;;;6.05;1.25;;;;;;;;;;5055824;28;20422;-69
2022/03/19 12:50:35;;;;;;;2.25;1.08;;;;;;;;;;5061190;28;20288;-67
2022/03/19 12:53:00;;;;;;;7.03;1.27;;;;;;;;;;5057344;28;20288;-66
2022/03/19 12:55:25;;;;;;;4.65;1.70;;;;;;;;;;5060328;28;20188;-67
2022/03/19 12:57:55;;;;;;;6.88;1.38;;;;;;;;;;5063704;28;20249;-66
2022/03/19 13:00:20;;;;;;;2.67;1.13;;;;;;;;;;5055509;28;20228;-68
2022/03/19 13:02:49;;;;;;;3.17;1.77;;;;;;;;;;5052756;28;20197;-68
2022/03/19 13:05:14;;;;;;;8.73;2.05;;;;;;;;;;5063635;28;20178;-68
2022/03/19 13:07:40;;;;;;;5.87;1.20;;;;;;;;;;5062099;28;20186;-69
2022/03/19 13:10:15;;;;;;;3.00;1.13;;;;;;;;;;5062466;28;20485;-67
2022/03/19 13:12:40;;;;;;;3.13;1.20;;;;;;;;;;5048159;28;20422;-67
2022/03/19 13:15:14;;;;;;;3.90;0.88;;;;;;;;;;5060980;28;20269;-68
2022/03/19 13:17:39;;;;;;;2.92;0.95;;;;;;;;;;5049605;28;20659;-67
2022/03/19 13:20:05;;;;;;;3.33;1.13;;;;;;;;;;5053405;28;20240;-68
2022/03/19 13:22:31;;;;;;;2.08;1.15;;;;;;;;;;5051911;28;20509;-67
2022/03/19 13:24:56;;;;;;;2.63;1.35;;;;;;;;;;5064610;28;20260;-68
2022/03/19 13:27:28;;;;;;;3.00;1.13;;;;;;;;;;5054939;28;20181;-67
2022/03/19 13:29:57;;;;;;;3.75;1.10;;;;;;;;;;5063111;28;20181;-67
2022/03/19 13:32:22;;;;;;;2.90;1.20;;;;;;;;;;5055352;28;20173;-67
2022/03/19 13:34:49;;;;;;;3.15;1.35;;;;;;;;;;5041200;28;20572;-68
2022/03/19 13:37:20;;;;;;;3.88;1.92;;;;;;;;;;5056354;28;20230;-68
2022/03/19 13:39:46;;;;;;;3.08;1.30;;;;;;;;;;5052487;28;20170;-67
2022/03/19 13:42:13;;;;;;;2.88;1.65;;;;;;;;;;5052531;28;20184;-68
2022/03/19 13:44:42;;;;;;;2.70;1.38;;;;;;;;;;5057665;28;20185;-67
2022/03/19 13:47:09;;;;;;;2.25;0.93;;;;;;;;;;5052069;28;20188;-68
2022/03/19 13:49:36;;;;;;;3.92;1.35;;;;;;;;;;5054715;28;20199;-67
2022/03/19 13:52:01;;;;;;;4.88;1.50;;;;;;;;;;5053925;28;20256;-68
2022/03/19 13:54:43;;;;;;;6.75;1.23;;;;;;;;;;5039874;28;20802;-67
2022/03/19 13:57:10;;;;;;;4.28;1.42;;;;;;;;;;5049307;28;20224;-68
2022/03/19 13:59:35;;;;;;;3.35;1.25;;;;;;;;;;5050589;28;20321;-68
2022/03/19 14:02:01;;;;;;;3.53;1.13;;;;;;;;;;5052697;28;20182;-69
2022/03/19 14:04:26;;;;;;;3.00;1.08;;;;;;;;;;5055411;28;20921;-68
2022/03/19 14:06:52;;;;;;;7.13;1.10;;;;;;;;;;5057617;28;20180;-68
2022/03/19 14:09:17;;;;;;;2.92;1.42;;;;;;;;;;5055722;28;20235;-66
2022/03/19 14:11:44;;;;;;;2.90;1.20;;;;;;;;;;5061765;28;20433;-67
2022/03/19 14:14:14;;;;;;;2.97;1.35;;;;;;;;;;5036110;28;20206;-68
2022/03/19 14:16:53;;;;;;;2.80;1.13;;;;;;;;;;5047054;28;20288;-68
2022/03/19 14:19:19;;;;;;;3.15;1.30;;;;;;;;;;5050084;28;20674;-66
2022/03/19 14:21:44;;;;;;;4.70;1.30;;;;;;;;;;5057954;28;20192;-68
2022/03/19 14:24:09;;;;;;;3.13;1.10;;;;;;;;;;5052011;28;20182;-68
2022/03/19 14:26:34;;;;;;;2.53;1.00;;;;;;;;;;5055541;28;20815;-68
2022/03/19 14:28:59;;;;;;;2.70;1.03;;;;;;;;;;5058445;28;20422;-68
2022/03/19 14:31:25;;;;;;;4.40;1.20;;;;;;;;;;5057548;28;20568;-69
2022/03/19 14:33:50;;;;;;;3.00;1.50;;;;;;;;;;5055486;28;20211;-67
2022/03/19 14:36:15;;;;;;;1.65;0.93;;;;;;;;;;5051645;28;20185;-68
2022/03/19 14:38:42;;;;;;;2.70;1.30;;;;;;;;;;5051553;28;20166;-68
2022/03/19 14:41:15;;;;;;;3.80;1.40;;;;;;;;;;5054882;28;20272;-68
2022/03/19 14:43:42;;;;;;;2.45;0.82;;;;;;;;;;5054040;28;20220;-67
2022/03/19 14:46:07;;;;;;;3.10;1.10;;;;;;;;;;5055004;28;20182;-68
2022/03/19 14:48:33;;;;;;;4.07;1.00;;;;;;;;;;5053593;28;20199;-68
2022/03/19 14:51:01;;;;;;;2.92;1.10;;;;;;;;;;5050819;28;20244;-68
2022/03/19 14:53:26;;;;;;;1.45;0.80;;;;;;;;;;5054197;28;20205;-68
2022/03/19 14:55:52;;;;;;;2.55;0.90;;;;;;;;;;5060538;28;20169;-68